Time;durP1;ratioP1;P1;durP2;ratioP2;P2;SDS_P1;SDS_P2;PMS_P1;PMS_P2;Temp;Humidity;BMP_temperature;BMP_pressure;BME280_temperature;BME280_humidity;BME280_pressure;Samples;Min_cycle;Max_cycle;Signal;HPM_P1;HPM_P2
2023/06/16 00:00:01;;;;;;;;;;;22.40;80.30;22.30;99569.00;;;;343649;28;82644;-90
2023/06/16 00:00:14;;;;;;;;;;;22.40;80.50;22.30;99551.00;;;;340927;28;91808;-90
2023/06/16 00:00:26;;;;;;;;;;;22.30;80.40;22.30;99562.00;;;;341090;28;82553;-89
2023/06/16 00:00:43;;;;;;;;;;;22.40;80.50;22.20;99554.00;;;;343583;28;90692;-90
2023/06/16 00:00:59;;;;;;;;;;;22.30;80.50;22.30;99551.00;;;;345306;28;83353;-90
2023/06/16 00:01:15;;;;;;;;;;;22.30;80.50;22.30;99555.00;;;;342219;28;90354;-90
2023/06/16 00:01:31;;;;;;;;;;;22.30;80.60;22.30;99554.00;;;;343773;28;82557;-90
2023/06/16 00:01:44;;;;;;;;;;;22.30;80.70;22.30;99551.00;;;;345172;28;92064;-89
2023/06/16 00:01:57;;;;;;;;;;;22.30;80.70;22.30;99561.00;;;;345252;28;83317;-90
2023/06/16 00:02:12;;;;;;;;;;;22.30;81.10;22.30;99549.00;;;;344811;28;90934;-91
2023/06/16 00:02:24;;;;;;;;;;;22.30;80.60;22.30;99561.00;;;;345248;28;82496;-90
2023/06/16 00:02:37;;;;;;;;;;;22.30;80.80;22.20;99562.00;;;;344797;28;90830;-90
2023/06/16 00:02:49;;;;;;;;;;;22.30;80.90;22.30;99553.00;;;;343993;28;83217;-89
2023/06/16 00:03:01;;;;;;;;;;;22.30;80.90;22.20;99557.00;;;;341632;28;90705;-90
2023/06/16 00:03:15;;;;;;;;;;;22.30;81.50;22.20;99564.00;;;;343443;28;83411;-91
2023/06/16 00:03:33;;;;;;;;;;;22.30;81.00;22.30;99563.00;;;;342920;28;92006;-90
2023/06/16 00:03:49;;;;;;;;;;;22.30;81.00;22.30;99553.00;;;;340654;28;82584;-90
2023/06/16 00:04:03;;;;;;;;;;;22.30;81.10;22.30;99557.00;;;;342881;28;92420;-91
2023/06/16 00:04:17;;;;;;;;;;;22.30;80.90;22.40;99551.00;;;;342028;28;83482;-90
2023/06/16 00:04:29;;;;;;;;;;;22.30;80.80;22.30;99563.00;;;;340219;28;90949;-90
2023/06/16 00:04:41;;;;;;;;;;;22.30;80.90;22.30;99552.00;;;;344485;28;82585;-91
2023/06/16 00:04:53;;;;;;;;;;;22.30;80.80;22.30;99550.00;;;;341681;28;90785;-90
2023/06/16 00:05:05;;;;;;;;;;;22.30;81.20;22.30;99566.00;;;;341963;28;83615;-90
2023/06/16 00:05:17;;;;;;;;;;;22.30;81.20;22.30;99562.00;;;;344297;28;91348;-90
2023/06/16 00:05:29;;;;;;;;;;;22.30;81.30;22.20;99567.00;;;;339367;28;82519;-90
2023/06/16 00:05:46;;;;;;;;;;;22.30;81.40;22.30;99548.00;;;;342893;28;91824;-90
2023/06/16 00:06:03;;;;;;;;;;;22.30;81.30;22.20;99555.00;;;;344667;28;83409;-90
2023/06/16 00:06:15;;;;;;;;;;;22.20;81.50;22.30;99560.00;;;;342924;28;92252;-90
2023/06/16 00:06:29;;;;;;;;;;;22.20;81.40;22.30;99553.00;;;;344657;28;83491;-90
2023/06/16 00:06:42;;;;;;;;;;;22.20;81.30;22.30;99567.00;;;;340282;28;91915;-91
2023/06/16 00:06:54;;;;;;;;;;;22.30;81.30;22.30;99555.00;;;;342099;28;82503;-90
2023/06/16 00:07:06;;;;;;;;;;;22.20;81.30;22.30;99557.00;;;;342941;28;90049;-90
2023/06/16 00:07:19;;;;;;;;;;;22.20;81.70;22.30;99556.00;;;;343352;28;83448;-90
2023/06/16 00:07:33;;;;;;;;;;;22.20;81.70;22.20;99563.00;;;;344418;28;90759;-90
2023/06/16 00:07:45;;;;;;;;;;;22.20;81.80;22.20;99556.00;;;;342019;28;83452;-91
2023/06/16 00:08:00;;;;;;;;;;;22.20;81.80;22.20;99560.00;;;;340384;28;88028;-90
2023/06/16 00:08:14;;;;;;;;;;;22.20;81.80;22.20;99555.00;;;;343294;28;82503;-90
2023/06/16 00:08:27;;;;;;;;;;;22.20;81.90;22.30;99562.00;;;;342877;28;91159;-90
2023/06/16 00:08:51;;;;;;;;;;;22.20;82.20;22.30;99565.00;;;;344755;28;82599;-90
2023/06/16 00:09:03;;;;;;;;;;;22.20;81.70;22.20;99552.00;;;;342931;28;91603;-90
2023/06/16 00:09:15;;;;;;;;;;;22.20;81.90;22.30;99553.00;;;;344695;28;82561;-90
2023/06/16 00:09:27;;;;;;;;;;;22.20;81.70;22.30;99552.00;;;;342935;28;91360;-90
2023/06/16 00:09:39;;;;;;;;;;;22.20;81.70;22.30;99550.00;;;;344759;28;83496;-90
2023/06/16 00:09:51;;;;;;;;;;;22.20;81.80;22.30;99555.00;;;;344251;28;91611;-90
2023/06/16 00:10:06;;;;;;;;;;;22.20;81.80;22.20;99565.00;;;;344572;28;82606;-91
2023/06/16 00:10:18;;;;;;;;;;;22.20;82.20;22.30;99554.00;;;;342801;28;89576;-89
2023/06/16 00:10:30;;;;;;;;;;;22.20;82.10;22.20;99561.00;;;;342038;28;82527;-90
2023/06/16 00:10:42;;;;;;;;;;;22.20;82.20;22.30;99557.00;;;;340227;28;89900;-91
2023/06/16 00:10:54;;;;;;;;;;;22.30;82.10;22.30;99553.00;;;;344793;28;83379;-90
2023/06/16 00:11:06;;;;;;;;;;;22.20;82.10;22.30;99556.00;;;;344367;28;90350;-90
2023/06/16 00:11:18;;;;;;;;;;;22.20;82.10;22.30;99551.00;;;;343393;28;83430;-90
2023/06/16 00:11:30;;;;;;;;;;;22.20;81.90;22.30;99565.00;;;;341616;28;91103;-90
2023/06/16 00:11:41;;;;;;;;;;;22.30;81.90;22.30;99555.00;;;;343356;28;83508;-90
2023/06/16 00:11:54;;;;;;;;;;;22.30;82.40;22.30;99552.00;;;;342975;28;89888;-90
2023/06/16 00:12:06;;;;;;;;;;;22.30;82.40;22.30;99551.00;;;;340672;28;83369;-90
2023/06/16 00:12:18;;;;;;;;;;;22.30;82.40;22.30;99553.00;;;;341554;28;91329;-91
2023/06/16 00:12:30;;;;;;;;;;;22.30;82.20;22.30;99556.00;;;;340722;28;82433;-90
2023/06/16 00:12:42;;;;;;;;;;;22.30;82.20;22.30;99543.00;;;;341494;28;92271;-90
2023/06/16 00:12:54;;;;;;;;;;;22.30;82.20;22.40;99554.00;;;;343331;28;83423;-90
2023/06/16 00:13:05;;;;;;;;;;;22.30;82.90;22.30;99560.00;;;;342724;28;90115;-90
2023/06/16 00:13:17;;;;;;;;;;;22.30;82.50;22.30;99554.00;;;;343365;28;83391;-90
2023/06/16 00:13:29;;;;;;;;;;;22.30;82.50;22.40;99554.00;;;;341618;28;91587;-89
2023/06/16 00:13:42;;;;;;;;;;;22.30;82.30;22.30;99554.00;;;;343319;28;83462;-90
2023/06/16 00:13:54;;;;;;;;;;;22.30;82.60;22.30;99549.00;;;;343014;28;89842;-90
2023/06/16 00:14:05;;;;;;;;;;;22.30;82.40;22.40;99556.00;;;;343438;28;83413;-90
2023/06/16 00:14:17;;;;;;;;;;;22.30;82.40;22.40;99549.00;;;;341557;28;91134;-90
2023/06/16 00:14:29;;;;;;;;;;;22.30;82.40;22.30;99554.00;;;;341976;28;83332;-90
2023/06/16 00:14:41;;;;;;;;;;;22.30;82.60;22.40;99554.00;;;;340235;28;90043;-90
2023/06/16 00:14:53;;;;;;;;;;;22.30;82.50;22.40;99553.00;;;;340655;28;83471;-90
2023/06/16 00:15:06;;;;;;;;;;;22.30;82.70;22.40;99553.00;;;;342936;28;91997;-90
2023/06/16 00:15:20;;;;;;;;;;;22.30;82.60;22.40;99550.00;;;;343427;28;83369;-90
2023/06/16 00:15:31;;;;;;;;;;;22.30;82.70;22.40;99569.00;;;;342950;28;91489;-90
2023/06/16 00:15:43;;;;;;;;;;;22.30;82.50;22.30;99560.00;;;;340688;28;82594;-91
2023/06/16 00:15:55;;;;;;;;;;;22.30;82.80;22.30;99549.00;;;;341600;28;90354;-90
2023/06/16 00:16:07;;;;;;;;;;;22.30;82.90;22.30;99563.00;;;;341939;28;83537;-90
2023/06/16 00:16:19;;;;;;;;;;;22.30;82.90;22.30;99557.00;;;;342868;28;91058;-90
2023/06/16 00:16:32;;;;;;;;;;;22.30;82.60;22.40;99548.00;;;;343401;28;83430;-90
2023/06/16 00:16:45;;;;;;;;;;;22.30;82.70;22.30;99554.00;;;;345660;28;92767;-90
2023/06/16 00:16:57;;;;;;;;;;;22.30;82.90;22.30;99556.00;;;;341945;28;83442;-90
2023/06/16 00:17:10;;;;;;;;;;;22.30;83.00;22.30;99556.00;;;;341750;28;88414;-90
2023/06/16 00:17:23;;;;;;;;;;;22.30;82.80;22.40;99548.00;;;;342016;28;83590;-90
2023/06/16 00:17:44;;;;;;;;;;;22.30;82.90;22.40;99552.00;;;;340223;28;91493;-90
2023/06/16 00:17:56;;;;;;;;;;;22.30;82.90;22.30;99552.00;;;;343372;28;83498;-90
2023/06/16 00:18:08;;;;;;;;;;;22.30;83.20;22.30;99560.00;;;;342923;28;90664;-90
2023/06/16 00:18:20;;;;;;;;;;;22.30;83.20;22.20;99553.00;;;;344658;28;83547;-90
2023/06/16 00:18:32;;;;;;;;;;;22.30;83.40;22.30;99550.00;;;;340225;28;90582;-90
2023/06/16 00:18:44;;;;;;;;;;;22.30;83.30;22.30;99549.00;;;;343335;28;82589;-90
2023/06/16 00:18:59;;;;;;;;;;;22.30;83.30;22.20;99551.00;;;;342958;28;92427;-90
2023/06/16 00:19:11;;;;;;;;;;;22.30;83.50;22.20;99548.00;;;;342062;28;82543;-90
2023/06/16 00:19:27;;;;;;;;;;;22.30;83.60;22.10;99562.00;;;;341595;28;90717;-90
2023/06/16 00:19:39;;;;;;;;;;;22.30;83.70;22.10;99553.00;;;;342005;28;83251;-91
2023/06/16 00:19:51;;;;;;;;;;;22.30;83.70;22.10;99544.00;;;;341614;28;91593;-90
2023/06/16 00:20:05;;;;;;;;;;;22.20;83.70;22.20;99553.00;;;;340624;28;83400;-90
2023/06/16 00:20:21;;;;;;;;;;;22.20;83.60;22.20;99547.00;;;;338884;28;90424;-90
2023/06/16 00:20:34;;;;;;;;;;;22.30;83.80;22.20;99553.00;;;;340669;28;83442;-90
2023/06/16 00:20:51;;;;;;;;;;;22.20;83.60;22.30;99541.00;;;;340215;28;90835;-90
2023/06/16 00:21:03;;;;;;;;;;;22.30;83.70;22.30;99546.00;;;;341961;28;83446;-90
2023/06/16 00:21:19;;;;;;;;;;;22.20;83.90;22.30;99552.00;;;;341531;28;92051;-90
2023/06/16 00:21:38;;;;;;;;;;;22.30;84.00;22.20;99549.00;;;;343351;28;83470;-90
2023/06/16 00:21:49;;;;;;;;;;;22.20;83.90;22.30;99548.00;;;;341585;28;91592;-90
2023/06/16 00:22:03;;;;;;;;;;;22.20;83.80;22.20;99561.00;;;;343343;28;83505;-91
2023/06/16 00:22:15;;;;;;;;;;;22.20;84.20;22.20;99546.00;;;;338837;28;91687;-90
2023/06/16 00:22:27;;;;;;;;;;;22.20;84.30;22.20;99548.00;;;;340479;28;83499;-90
2023/06/16 00:22:41;;;;;;;;;;;22.20;84.10;22.20;99544.00;;;;342955;28;91516;-90
2023/06/16 00:22:54;;;;;;;;;;;22.20;84.10;22.20;99546.00;;;;342113;28;83312;-90
2023/06/16 00:23:11;;;;;;;;;;;22.20;84.00;22.20;99550.00;;;;341559;28;91301;-90
2023/06/16 00:23:23;;;;;;;;;;;22.20;84.20;22.30;99539.00;;;;342058;28;82463;-90
2023/06/16 00:23:34;;;;;;;;;;;22.20;83.90;22.30;99551.00;;;;342859;28;92217;-90
2023/06/16 00:23:46;;;;;;;;;;;22.20;83.90;22.30;99551.00;;;;343326;28;83455;-90
2023/06/16 00:23:58;;;;;;;;;;;22.20;83.90;22.20;99552.00;;;;340243;28;91468;-90
2023/06/16 00:24:10;;;;;;;;;;;22.20;84.10;22.20;99545.00;;;;340711;28;83377;-90
2023/06/16 00:24:22;;;;;;;;;;;22.20;84.30;22.10;99543.00;;;;341449;28;91806;-90
2023/06/16 00:24:34;;;;;;;;;;;22.20;85.00;22.10;99544.00;;;;342032;28;82533;-90
2023/06/16 00:24:46;;;;;;;;;;;22.20;84.40;22.10;99544.00;;;;344399;28;89144;-90
2023/06/16 00:24:59;;;;;;;;;;;22.20;84.30;22.20;99538.00;;;;344666;28;83158;-90
2023/06/16 00:25:11;;;;;;;;;;;22.20;84.30;22.10;99542.00;;;;342708;28;90634;-90
2023/06/16 00:25:22;;;;;;;;;;;22.20;84.40;22.10;99542.00;;;;343316;28;82587;-90
2023/06/16 00:25:34;;;;;;;;;;;22.20;84.40;22.10;99538.00;;;;341580;28;91206;-90
2023/06/16 00:25:47;;;;;;;;;;;22.20;84.40;22.10;99548.00;;;;340568;28;82531;-90
2023/06/16 00:25:59;;;;;;;;;;;22.10;84.60;22.10;99547.00;;;;341590;28;90400;-90
2023/06/16 00:26:11;;;;;;;;;;;22.10;84.80;22.20;99537.00;;;;342050;28;83402;-90
2023/06/16 00:26:23;;;;;;;;;;;22.20;84.70;22.20;99542.00;;;;342891;28;89131;-90
2023/06/16 00:26:35;;;;;;;;;;;22.20;84.40;22.20;99548.00;;;;341998;28;83401;-90
2023/06/16 00:26:47;;;;;;;;;;;22.20;84.60;22.20;99544.00;;;;342967;28;90714;-90
2023/06/16 00:26:59;;;;;;;;;;;22.20;84.80;22.20;99539.00;;;;341984;28;83420;-90
2023/06/16 00:27:11;;;;;;;;;;;22.20;84.40;22.20;99545.00;;;;343004;28;91264;-90
2023/06/16 00:27:22;;;;;;;;;;;22.20;84.30;22.20;99541.00;;;;343376;28;83434;-91
2023/06/16 00:27:35;;;;;;;;;;;22.20;84.30;22.20;99546.00;;;;342958;28;91126;-90
2023/06/16 00:27:47;;;;;;;;;;;22.20;84.70;22.10;99545.00;;;;343355;28;83352;-90
2023/06/16 00:27:59;;;;;;;;;;;22.20;84.90;22.20;99548.00;;;;342956;28;91521;-90
2023/06/16 00:28:11;;;;;;;;;;;22.20;84.70;22.20;99535.00;;;;342005;28;82510;-90
2023/06/16 00:28:22;;;;;;;;;;;22.20;84.90;22.10;99541.00;;;;342881;28;91338;-90
2023/06/16 00:28:34;;;;;;;;;;;22.10;85.00;22.10;99539.00;;;;344700;28;83477;-90
2023/06/16 00:28:46;;;;;;;;;;;22.10;85.00;22.20;99549.00;;;;341647;28;88113;-90
2023/06/16 00:28:58;;;;;;;;;;;22.10;84.80;22.20;99540.00;;;;343357;28;83417;-90
2023/06/16 00:29:10;;;;;;;;;;;22.10;84.60;22.20;99548.00;;;;341473;28;92097;-90
2023/06/16 00:29:22;;;;;;;;;;;22.20;84.60;22.20;99547.00;;;;340518;28;83631;-90
2023/06/16 00:29:34;;;;;;;;;;;22.20;84.70;22.20;99533.00;;;;338889;28;92380;-90
2023/06/16 00:29:46;;;;;;;;;;;22.20;84.90;22.10;99547.00;;;;340609;28;83481;-90
2023/06/16 00:29:58;;;;;;;;;;;22.10;85.10;22.10;99541.00;;;;341613;28;91653;-90
2023/06/16 00:30:10;;;;;;;;;;;22.10;85.00;22.10;99540.00;;;;341957;28;83412;-90
2023/06/16 00:30:22;;;;;;;;;;;22.10;85.20;22.10;99541.00;;;;344234;28;90181;-89
2023/06/16 00:30:33;;;;;;;;;;;22.10;85.10;22.10;99545.00;;;;343397;28;82468;-91
2023/06/16 00:30:45;;;;;;;;;;;22.10;85.10;22.20;99542.00;;;;340259;28;91332;-91
2023/06/16 00:30:59;;;;;;;;;;;22.10;85.00;22.20;99538.00;;;;343378;28;82535;-90
2023/06/16 00:31:11;;;;;;;;;;;22.10;85.00;22.10;99547.00;;;;341535;28;91937;-90
2023/06/16 00:31:25;;;;;;;;;;;22.10;85.20;22.20;99540.00;;;;340607;28;83358;-91
2023/06/16 00:31:37;;;;;;;;;;;22.10;85.20;22.10;99537.00;;;;342832;28;92747;-91
2023/06/16 00:31:49;;;;;;;;;;;22.10;85.30;22.20;99544.00;;;;341930;28;82449;-90
2023/06/16 00:32:01;;;;;;;;;;;22.10;85.10;22.20;99538.00;;;;342714;28;90140;-90
2023/06/16 00:32:13;;;;;;;;;;;22.10;85.10;22.20;99535.00;;;;343212;28;82469;-90
2023/06/16 00:32:25;;;;;;;;;;;22.10;85.10;22.20;99543.00;;;;340226;28;91192;-90
2023/06/16 00:32:37;;;;;;;;;;;22.10;85.00;22.20;99545.00;;;;344691;28;83429;-90
2023/06/16 00:32:49;;;;;;;;;;;22.10;85.20;22.20;99540.00;;;;344318;28;91887;-90
2023/06/16 00:33:01;;;;;;;;;;;22.10;85.20;22.20;99545.00;;;;341986;28;83489;-90
2023/06/16 00:33:15;;;;;;;;;;;22.10;85.20;22.20;99545.00;;;;342926;28;91770;-90
2023/06/16 00:33:27;;;;;;;;;;;22.20;85.20;22.20;99543.00;;;;341956;28;83333;-91
2023/06/16 00:33:39;;;;;;;;;;;22.20;85.10;22.20;99540.00;;;;341426;28;92702;-90
2023/06/16 00:33:52;;;;;;;;;;;22.20;85.20;22.10;99546.00;;;;343277;28;83433;-90
2023/06/16 00:34:04;;;;;;;;;;;22.20;85.20;22.20;99538.00;;;;344311;28;90395;-89
2023/06/16 00:34:15;;;;;;;;;;;22.20;85.10;22.10;99544.00;;;;343361;28;82403;-90
2023/06/16 00:34:27;;;;;;;;;;;22.20;85.30;22.10;99546.00;;;;341500;28;90274;-90
2023/06/16 00:34:39;;;;;;;;;;;22.10;85.40;22.10;99543.00;;;;344750;28;82533;-90
2023/06/16 00:34:51;;;;;;;;;;;22.10;85.30;22.10;99542.00;;;;340242;28;91155;-91
2023/06/16 00:35:02;;;;;;;;;;;22.10;85.30;22.10;99543.00;;;;343190;28;83490;-90
2023/06/16 00:35:14;;;;;;;;;;;22.10;85.60;22.10;99548.00;;;;342942;28;91609;-90
2023/06/16 00:35:26;;;;;;;;;;;22.10;85.70;22.00;99544.00;;;;343107;28;83553;-90
2023/06/16 00:35:39;;;;;;;;;;;22.10;85.80;22.10;99547.00;;;;341459;28;92132;-90
2023/06/16 00:35:51;;;;;;;;;;;22.10;85.50;22.10;99535.00;;;;344702;28;82467;-90
2023/06/16 00:36:03;;;;;;;;;;;22.10;85.70;22.10;99543.00;;;;344283;28;91428;-90
2023/06/16 00:36:15;;;;;;;;;;;22.10;85.70;22.20;99545.00;;;;342060;28;83372;-91
2023/06/16 00:36:27;;;;;;;;;;;22.10;85.50;22.20;99549.00;;;;340318;28;89221;-91
2023/06/16 00:36:38;;;;;;;;;;;22.10;85.50;22.20;99544.00;;;;343350;28;83400;-90
2023/06/16 00:36:50;;;;;;;;;;;22.10;85.80;22.20;99546.00;;;;344332;28;91323;-90
2023/06/16 00:37:02;;;;;;;;;;;22.10;85.90;22.20;99552.00;;;;341897;28;82645;-90
2023/06/16 00:37:14;;;;;;;;;;;22.10;85.70;22.20;99546.00;;;;344096;28;89476;-91
2023/06/16 00:37:26;;;;;;;;;;;22.10;85.80;22.10;99551.00;;;;343342;28;83435;-90
2023/06/16 00:37:38;;;;;;;;;;;22.10;86.00;22.20;99545.00;;;;341559;28;92268;-91
2023/06/16 00:37:49;;;;;;;;;;;22.10;86.00;22.20;99540.00;;;;343380;28;82469;-91
2023/06/16 00:38:01;;;;;;;;;;;22.10;85.90;22.20;99546.00;;;;342825;28;91968;-90
2023/06/16 00:38:13;;;;;;;;;;;22.10;85.60;22.20;99543.00;;;;341887;28;83204;-90
2023/06/16 00:38:25;;;;;;;;;;;22.10;85.80;22.10;99548.00;;;;340197;28;91333;-90
2023/06/16 00:38:37;;;;;;;;;;;22.10;86.00;22.10;99548.00;;;;342017;28;83393;-90
2023/06/16 00:38:49;;;;;;;;;;;22.10;86.10;22.00;99551.00;;;;343053;28;90074;-90
2023/06/16 00:39:01;;;;;;;;;;;22.10;86.10;22.10;99552.00;;;;341896;28;83480;-90
2023/06/16 00:39:12;;;;;;;;;;;22.10;86.00;22.10;99551.00;;;;340207;28;91862;-90
2023/06/16 00:39:24;;;;;;;;;;;22.10;86.00;22.10;99547.00;;;;343345;28;82503;-90
2023/06/16 00:39:36;;;;;;;;;;;22.10;86.00;22.10;99554.00;;;;342828;28;92365;-90
2023/06/16 00:39:48;;;;;;;;;;;22.10;85.70;22.20;99548.00;;;;340597;28;84266;-90
2023/06/16 00:40:00;;;;;;;;;;;22.10;85.70;22.10;99539.00;;;;342693;28;91577;-90
2023/06/16 00:40:11;;;;;;;;;;;22.10;86.20;22.10;99548.00;;;;342036;28;83311;-90
2023/06/16 00:40:23;;;;;;;;;;;22.10;86.10;22.10;99552.00;;;;340122;28;90373;-91
2023/06/16 00:40:35;;;;;;;;;;;22.10;86.40;22.00;99546.00;;;;340684;28;83356;-90
2023/06/16 00:40:47;;;;;;;;;;;22.10;86.60;22.00;99548.00;;;;341618;28;91500;-90
2023/06/16 00:41:00;;;;;;;;;;;22.10;86.60;22.10;99550.00;;;;343210;28;83419;-90
2023/06/16 00:41:13;;;;;;;;;;;22.10;86.40;22.10;99545.00;;;;342855;28;91790;-90
2023/06/16 00:41:25;;;;;;;;;;;22.10;86.60;22.10;99546.00;;;;343290;28;83380;-90
2023/06/16 00:41:37;;;;;;;;;;;22.10;86.80;22.00;99545.00;;;;346996;28;91823;-90
2023/06/16 00:41:49;;;;;;;;;;;22.10;86.90;22.00;99547.00;;;;343387;28;83441;-90
2023/06/16 00:42:01;;;;;;;;;;;22.10;86.90;22.10;99544.00;;;;344255;28;91650;-90
2023/06/16 00:42:13;;;;;;;;;;;22.10;86.60;22.10;99547.00;;;;342042;28;83352;-90
2023/06/16 00:42:24;;;;;;;;;;;22.10;86.60;22.10;99537.00;;;;342971;28;91324;-90
2023/06/16 00:42:36;;;;;;;;;;;22.10;86.90;22.00;99553.00;;;;343355;28;83555;-91
2023/06/16 00:42:48;;;;;;;;;;;22.10;86.90;22.10;99545.00;;;;343076;28;91747;-90
2023/06/16 00:43:02;;;;;;;;;;;22.10;86.80;22.10;99549.00;;;;342261;28;83338;-90
2023/06/16 00:43:14;;;;;;;;;;;22.10;86.90;22.10;99542.00;;;;341698;28;92151;-90
2023/06/16 00:43:26;;;;;;;;;;;22.10;86.90;22.00;99550.00;;;;342179;28;83477;-90
2023/06/16 00:43:37;;;;;;;;;;;22.10;87.20;22.00;99555.00;;;;343148;28;93306;-90
2023/06/16 00:43:49;;;;;;;;;;;22.10;87.10;22.00;99549.00;;;;343497;28;82558;-91
2023/06/16 00:44:02;;;;;;;;;;;22.10;87.20;22.10;99552.00;;;;343129;28;90019;-90
2023/06/16 00:44:14;;;;;;;;;;;22.10;86.90;22.00;99541.00;;;;343593;28;83359;-90
2023/06/16 00:44:26;;;;;;;;;;;22.10;87.10;22.10;99551.00;;;;343078;28;91157;-91
2023/06/16 00:44:37;;;;;;;;;;;22.10;87.00;22.00;99547.00;;;;342075;28;83388;-90
2023/06/16 00:44:49;;;;;;;;;;;22.10;87.10;22.00;99540.00;;;;341916;28;90326;-90
2023/06/16 00:45:01;;;;;;;;;;;22.00;87.20;21.90;99553.00;;;;342194;28;83311;-90
2023/06/16 00:45:13;;;;;;;;;;;22.00;87.50;22.00;99551.00;;;;340924;28;91911;-90
2023/06/16 00:45:25;;;;;;;;;;;22.00;87.40;22.00;99540.00;;;;343349;28;83502;-90
2023/06/16 00:45:36;;;;;;;;;;;22.00;87.20;22.00;99545.00;;;;341961;28;92218;-90
2023/06/16 00:45:49;;;;;;;;;;;22.00;87.30;22.00;99544.00;;;;345185;28;83382;-90
2023/06/16 00:46:00;;;;;;;;;;;22.00;87.50;22.10;99548.00;;;;343168;28;90455;-89
2023/06/16 00:46:25;;;;;;;;;;;22.00;87.30;22.00;99544.00;;;;343680;28;82526;-90
2023/06/16 00:46:36;;;;;;;;;;;22.00;87.30;22.10;99544.00;;;;342958;28;92056;-91
2023/06/16 00:46:48;;;;;;;;;;;22.00;87.20;22.10;99548.00;;;;343458;28;83422;-90
2023/06/16 00:47:01;;;;;;;;;;;22.00;87.40;22.10;99543.00;;;;341917;28;90504;-90
2023/06/16 00:47:12;;;;;;;;;;;22.00;87.30;22.10;99548.00;;;;342312;28;82539;-89
2023/06/16 00:47:24;;;;;;;;;;;22.00;87.30;22.10;99541.00;;;;345175;28;90893;-89
2023/06/16 00:47:36;;;;;;;;;;;22.00;87.60;22.10;99545.00;;;;343793;28;82516;-90
2023/06/16 00:47:48;;;;;;;;;;;22.00;87.30;22.10;99541.00;;;;340515;28;92451;-90
2023/06/16 00:48:00;;;;;;;;;;;22.00;87.10;22.10;99544.00;;;;343618;28;82505;-90
2023/06/16 00:48:12;;;;;;;;;;;22.00;87.10;22.10;99552.00;;;;341752;28;91596;-90
2023/06/16 00:48:24;;;;;;;;;;;22.00;87.30;22.00;99547.00;;;;343540;28;83500;-90
2023/06/16 00:48:35;;;;;;;;;;;22.00;87.50;22.10;99542.00;;;;344397;28;90589;-90
2023/06/16 00:48:47;;;;;;;;;;;22.00;87.40;22.10;99550.00;;;;343534;28;82531;-90
2023/06/16 00:48:59;;;;;;;;;;;22.00;87.30;22.00;99550.00;;;;343041;28;91337;-90
2023/06/16 00:49:11;;;;;;;;;;;22.00;87.50;22.00;99539.00;;;;345066;28;83385;-90
2023/06/16 00:49:23;;;;;;;;;;;22.00;87.60;22.00;99549.00;;;;343250;28;91413;-90
2023/06/16 00:49:36;;;;;;;;;;;22.00;87.80;21.90;99551.00;;;;345048;28;83381;-90
2023/06/16 00:49:48;;;;;;;;;;;22.00;87.90;22.00;99549.00;;;;342003;28;92258;-90
2023/06/16 00:50:00;;;;;;;;;;;22.00;87.80;22.00;99551.00;;;;342144;28;83388;-90
2023/06/16 00:50:11;;;;;;;;;;;22.00;87.70;22.00;99545.00;;;;344584;28;91608;-90
2023/06/16 00:50:23;;;;;;;;;;;22.00;87.70;22.10;99543.00;;;;343405;28;83129;-89
2023/06/16 00:50:35;;;;;;;;;;;22.00;87.80;22.10;99552.00;;;;341847;28;91150;-89
2023/06/16 00:50:47;;;;;;;;;;;22.00;87.90;22.00;99553.00;;;;340840;28;82569;-90
2023/06/16 00:50:59;;;;;;;;;;;22.00;88.10;22.00;99550.00;;;;344186;28;91404;-90
2023/06/16 00:51:11;;;;;;;;;;;22.00;88.60;22.10;99552.00;;;;344666;28;82595;-90
2023/06/16 00:51:24;;;;;;;;;;;22.00;87.80;22.10;99552.00;;;;344289;28;91293;-90
2023/06/16 00:51:36;;;;;;;;;;;22.00;87.90;22.00;99551.00;;;;343340;28;83373;-90
2023/06/16 00:51:48;;;;;;;;;;;22.00;88.10;22.10;99551.00;;;;341518;28;91025;-90
2023/06/16 00:52:00;;;;;;;;;;;22.00;87.90;22.10;99548.00;;;;342041;28;82513;-90
2023/06/16 00:52:12;;;;;;;;;;;22.00;87.90;22.00;99552.00;;;;340286;28;90803;-90
2023/06/16 00:52:25;;;;;;;;;;;22.00;88.10;22.10;99548.00;;;;341952;28;82493;-90
2023/06/16 00:52:37;;;;;;;;;;;22.00;88.10;22.10;99546.00;;;;342971;28;91941;-90
2023/06/16 00:52:49;;;;;;;;;;;22.00;87.90;22.10;99554.00;;;;343453;28;82508;-90
2023/06/16 00:53:01;;;;;;;;;;;22.00;87.80;22.00;99556.00;;;;344319;28;89775;-90
2023/06/16 00:53:13;;;;;;;;;;;22.00;88.10;22.00;99550.00;;;;341929;28;83491;-90
2023/06/16 00:53:25;;;;;;;;;;;22.00;88.20;22.00;99548.00;;;;344310;28;91349;-90
2023/06/16 00:53:38;;;;;;;;;;;22.00;88.40;22.00;99543.00;;;;344761;28;83388;-90
2023/06/16 00:53:50;;;;;;;;;;;22.00;88.30;21.90;99560.00;;;;344193;28;93038;-90
2023/06/16 00:54:02;;;;;;;;;;;22.00;88.50;21.90;99552.00;;;;342080;28;82365;-90
2023/06/16 00:54:15;;;;;;;;;;;22.00;89.10;22.00;99549.00;;;;342938;28;90596;-90
2023/06/16 00:54:27;;;;;;;;;;;22.00;88.40;21.90;99550.00;;;;344611;28;83444;-90
2023/06/16 00:54:39;;;;;;;;;;;22.00;88.50;21.90;99546.00;;;;341499;28;91759;-90
2023/06/16 00:54:51;;;;;;;;;;;22.00;88.60;22.00;99546.00;;;;341997;28;83230;-90
2023/06/16 00:55:03;;;;;;;;;;;22.00;88.60;22.00;99548.00;;;;341446;28;91428;-90
2023/06/16 00:55:15;;;;;;;;;;;22.00;88.40;21.90;99547.00;;;;342011;28;83403;-91
2023/06/16 00:55:28;;;;;;;;;;;22.00;88.50;22.00;99553.00;;;;342888;28;90867;-90
2023/06/16 00:55:40;;;;;;;;;;;22.00;88.60;22.00;99549.00;;;;341980;28;83306;-90
2023/06/16 00:55:52;;;;;;;;;;;22.00;88.60;22.00;99545.00;;;;342879;28;91183;-90
2023/06/16 00:56:04;;;;;;;;;;;22.00;88.70;22.00;99551.00;;;;342082;28;83437;-90
2023/06/16 00:56:16;;;;;;;;;;;22.00;88.70;21.90;99543.00;;;;342858;28;92520;-90
2023/06/16 00:56:28;;;;;;;;;;;22.00;88.60;22.00;99549.00;;;;343249;28;83375;-90
2023/06/16 00:56:41;;;;;;;;;;;22.00;88.50;21.90;99556.00;;;;341689;28;88107;-90
2023/06/16 00:56:53;;;;;;;;;;;22.00;88.70;22.00;99550.00;;;;343301;28;82544;-89
2023/06/16 00:57:06;;;;;;;;;;;22.00;88.70;21.90;99545.00;;;;341538;28;91571;-90
2023/06/16 00:57:18;;;;;;;;;;;22.00;88.90;21.80;99540.00;;;;343306;28;83403;-90
2023/06/16 00:57:30;;;;;;;;;;;21.90;89.00;21.90;99545.00;;;;341547;28;90263;-90
2023/06/16 00:57:42;;;;;;;;;;;21.90;88.80;21.90;99544.00;;;;344624;28;82503;-90
2023/06/16 00:57:54;;;;;;;;;;;21.90;88.70;21.90;99553.00;;;;341527;28;92984;-90
2023/06/16 00:58:05;;;;;;;;;;;21.90;88.70;22.00;99550.00;;;;342024;28;83400;-90
2023/06/16 00:58:18;;;;;;;;;;;21.90;88.70;21.90;99546.00;;;;341522;28;90129;-90
2023/06/16 00:58:30;;;;;;;;;;;21.90;89.00;21.90;99549.00;;;;341957;28;84757;-90
2023/06/16 00:58:43;;;;;;;;;;;21.90;89.00;21.90;99544.00;;;;342906;28;91682;-90
2023/06/16 00:58:56;;;;;;;;;;;21.90;89.10;21.90;99556.00;;;;340638;28;83275;-90
2023/06/16 00:59:08;;;;;;;;;;;21.90;89.00;22.00;99544.00;;;;340284;28;91436;-89
2023/06/16 00:59:21;;;;;;;;;;;21.90;89.00;21.90;99546.00;;;;341990;28;83407;-90
2023/06/16 00:59:33;;;;;;;;;;;22.00;89.10;22.00;99545.00;;;;342949;28;91287;-90
2023/06/16 00:59:45;;;;;;;;;;;21.90;89.00;22.00;99548.00;;;;344656;28;83447;-90
2023/06/16 00:59:57;;;;;;;;;;;21.90;89.00;22.00;99550.00;;;;341493;28;91551;-90
2023/06/16 01:00:11;;;;;;;;;;;21.90;89.10;21.90;99549.00;;;;340831;28;83272;-90
2023/06/16 01:00:23;;;;;;;;;;;21.90;89.20;21.80;99547.00;;;;342907;28;91444;-91
2023/06/16 01:00:36;;;;;;;;;;;21.90;89.30;21.90;99538.00;;;;344643;28;82388;-90
2023/06/16 01:00:49;;;;;;;;;;;21.90;89.30;21.90;99550.00;;;;342861;28;90333;-90
2023/06/16 01:01:01;;;;;;;;;;;21.90;89.10;21.80;99551.00;;;;346025;28;83405;-90
2023/06/16 01:01:14;;;;;;;;;;;21.90;89.30;21.90;99545.00;;;;342838;28;90569;-90
2023/06/16 01:01:28;;;;;;;;;;;21.90;89.20;21.90;99549.00;;;;343258;28;83298;-90
2023/06/16 01:01:40;;;;;;;;;;;21.90;89.30;21.90;99554.00;;;;342878;28;90478;-91
2023/06/16 01:01:52;;;;;;;;;;;21.90;89.20;21.90;99548.00;;;;342006;28;83441;-90